sensor_id;sensor_type;location;lat;lon;timestamp;pressure;altitude;pressure_sealevel;temperature;humidity
69737;BME280;64476;55.004;73.342;2024-03-25T00:00:01;99997.00;;;0.04;60.16
69737;BME280;64476;55.004;73.342;2024-03-25T00:03:15;99977.53;;;-0.25;60.42
69737;BME280;64476;55.004;73.342;2024-03-25T00:06:16;100012.75;;;-0.12;60.48
69737;BME280;64476;55.004;73.342;2024-03-25T00:09:18;99882.91;;;-0.89;60.60
69737;BME280;64476;55.004;73.342;2024-03-25T00:12:21;100033.09;;;-0.07;60.90
69737;BME280;64476;55.004;73.342;2024-03-25T00:15:55;100039.19;;;-0.08;61.01
69737;BME280;64476;55.004;73.342;2024-03-25T00:18:57;99985.59;;;-0.43;60.87
69737;BME280;64476;55.004;73.342;2024-03-25T00:21:59;100031.16;;;-0.16;61.21
69737;BME280;64476;55.004;73.342;2024-03-25T00:25:00;100026.06;;;-0.18;61.06
69737;BME280;64476;55.004;73.342;2024-03-25T00:28:06;99946.47;;;-0.62;61.14
69737;BME280;64476;55.004;73.342;2024-03-25T00:31:07;100038.38;;;-0.08;61.04
69737;BME280;64476;55.004;73.342;2024-03-25T00:34:09;100032.47;;;-0.10;61.31
69737;BME280;64476;55.004;73.342;2024-03-25T00:37:11;100042.72;;;-0.09;60.77
69737;BME280;64476;55.004;73.342;2024-03-25T00:40:13;100031.75;;;-0.13;60.88
69737;BME280;64476;55.004;73.342;2024-03-25T00:43:14;100041.03;;;-0.10;61.27
69737;BME280;64476;55.004;73.342;2024-03-25T00:46:16;100048.09;;;-0.12;61.68
69737;BME280;64476;55.004;73.342;2024-03-25T00:49:18;100009.16;;;-0.34;61.59
69737;BME280;64476;55.004;73.342;2024-03-25T00:52:20;100063.69;;;-0.01;61.31
69737;BME280;64476;55.004;73.342;2024-03-25T00:55:26;100054.47;;;-0.18;61.53
69737;BME280;64476;55.004;73.342;2024-03-25T00:58:28;100001.81;;;-0.53;61.42
69737;BME280;64476;55.004;73.342;2024-03-25T01:01:30;100042.41;;;-0.30;61.72
69737;BME280;64476;55.004;73.342;2024-03-25T01:04:33;100084.13;;;-0.10;61.58
69737;BME280;64476;55.004;73.342;2024-03-25T01:07:36;100018.44;;;-0.45;61.53
69737;BME280;64476;55.004;73.342;2024-03-25T01:10:37;100030.19;;;-0.41;61.25
69737;BME280;64476;55.004;73.342;2024-03-25T01:13:39;100064.09;;;-0.20;61.68
69737;BME280;64476;55.004;73.342;2024-03-25T01:16:42;100109.84;;;0.04;61.28
69737;BME280;64476;55.004;73.342;2024-03-25T01:19:44;100036.94;;;-0.38;61.61
69737;BME280;64476;55.004;73.342;2024-03-25T01:22:46;100104.38;;;0.08;61.28
69737;BME280;64476;55.004;73.342;2024-03-25T01:25:48;100049.00;;;-0.26;61.22
69737;BME280;64476;55.004;73.342;2024-03-25T01:28:49;100125.06;;;0.21;61.18
69737;BME280;64476;55.004;73.342;2024-03-25T01:31:59;100068.22;;;-0.04;60.92
69737;BME280;64476;55.004;73.342;2024-03-25T01:35:00;100088.75;;;0.23;60.22
69737;BME280;64476;55.004;73.342;2024-03-25T01:38:04;100094.47;;;0.28;60.80
69737;BME280;64476;55.004;73.342;2024-03-25T01:44:17;100092.28;;;0.34;60.38
69737;BME280;64476;55.004;73.342;2024-03-25T01:47:18;100048.47;;;0.07;60.18
69737;BME280;64476;55.004;73.342;2024-03-25T01:50:21;100115.44;;;0.36;60.09
69737;BME280;64476;55.004;73.342;2024-03-25T01:53:29;100077.19;;;0.16;60.30
69737;BME280;64476;55.004;73.342;2024-03-25T01:56:32;100132.25;;;0.54;60.38
69737;BME280;64476;55.004;73.342;2024-03-25T01:59:35;100122.53;;;0.58;59.86
69737;BME280;64476;55.004;73.342;2024-03-25T02:02:39;100098.38;;;0.46;59.88
69737;BME280;64476;55.004;73.342;2024-03-25T02:05:49;100131.94;;;0.72;59.63
69737;BME280;64476;55.004;73.342;2024-03-25T02:08:52;100156.06;;;0.96;59.14
69737;BME280;64476;55.004;73.342;2024-03-25T02:11:59;100114.97;;;0.68;59.22
69737;BME280;64476;55.004;73.342;2024-03-25T02:15:01;100122.63;;;0.69;59.22
69737;BME280;64476;55.004;73.342;2024-03-25T02:18:04;100154.41;;;0.95;59.33
69737;BME280;64476;55.004;73.342;2024-03-25T02:21:06;100098.22;;;0.60;58.86
69737;BME280;64476;55.004;73.342;2024-03-25T02:24:09;100188.31;;;1.16;59.20
69737;BME280;64476;55.004;73.342;2024-03-25T02:27:12;100140.47;;;0.85;59.36
69737;BME280;64476;55.004;73.342;2024-03-25T02:30:16;100143.38;;;0.80;58.57
69737;BME280;64476;55.004;73.342;2024-03-25T02:33:18;100190.16;;;1.14;58.60
69737;BME280;64476;55.004;73.342;2024-03-25T02:36:20;100196.38;;;1.12;59.10
69737;BME280;64476;55.004;73.342;2024-03-25T02:39:22;100212.09;;;1.21;58.29
69737;BME280;64476;55.004;73.342;2024-03-25T02:42:32;100162.59;;;0.89;58.71
69737;BME280;64476;55.004;73.342;2024-03-25T02:45:34;100166.34;;;0.85;58.37
69737;BME280;64476;55.004;73.342;2024-03-25T02:48:36;100229.59;;;1.18;58.83
69737;BME280;64476;55.004;73.342;2024-03-25T02:51:37;100184.84;;;0.92;58.42
69737;BME280;64476;55.004;73.342;2024-03-25T02:54:39;100196.31;;;1.00;58.95
69737;BME280;64476;55.004;73.342;2024-03-25T03:01:16;100233.19;;;1.28;58.06
69737;BME280;64476;55.004;73.342;2024-03-25T03:04:18;100199.63;;;1.02;58.50
69737;BME280;64476;55.004;73.342;2024-03-25T03:07:20;100187.56;;;0.90;58.61
69737;BME280;64476;55.004;73.342;2024-03-25T03:10:21;100236.81;;;1.25;58.06
69737;BME280;64476;55.004;73.342;2024-03-25T03:13:23;100260.41;;;1.33;57.56
69737;BME280;64476;55.004;73.342;2024-03-25T03:16:27;100261.00;;;1.37;57.90
69737;BME280;64476;55.004;73.342;2024-03-25T03:19:28;100242.00;;;1.25;57.58
69737;BME280;64476;55.004;73.342;2024-03-25T03:22:31;100269.78;;;1.47;57.55
69737;BME280;64476;55.004;73.342;2024-03-25T03:25:38;100242.63;;;1.29;57.75
69737;BME280;64476;55.004;73.342;2024-03-25T03:29:15;100274.34;;;1.56;57.79
69737;BME280;64476;55.004;73.342;2024-03-25T03:32:21;100148.00;;;0.88;56.99
69737;BME280;64476;55.004;73.342;2024-03-25T03:35:22;100274.06;;;1.72;57.24
69737;BME280;64476;55.004;73.342;2024-03-25T03:38:24;100294.28;;;1.91;56.66
69737;BME280;64476;55.004;73.342;2024-03-25T03:41:26;100277.75;;;1.81;56.60
69737;BME280;64476;55.004;73.342;2024-03-25T03:44:27;100292.25;;;1.84;56.27
69737;BME280;64476;55.004;73.342;2024-03-25T03:48:01;100283.75;;;1.81;56.16
69737;BME280;64476;55.004;73.342;2024-03-25T03:51:05;100250.34;;;1.66;56.19
69737;BME280;64476;55.004;73.342;2024-03-25T03:54:13;100308.50;;;1.98;56.36
69737;BME280;64476;55.004;73.342;2024-03-25T03:57:15;100324.53;;;2.03;55.92
69737;BME280;64476;55.004;73.342;2024-03-25T04:00:17;100329.97;;;2.00;55.56
69737;BME280;64476;55.004;73.342;2024-03-25T04:03:19;100338.84;;;1.96;56.54
69737;BME280;64476;55.004;73.342;2024-03-25T04:06:24;100313.59;;;1.87;55.67
69737;BME280;64476;55.004;73.342;2024-03-25T04:09:27;100324.22;;;2.08;55.89
69737;BME280;64476;55.004;73.342;2024-03-25T04:12:30;100267.91;;;1.86;55.48
69737;BME280;64476;55.004;73.342;2024-03-25T04:15:35;100340.50;;;2.45;54.25
69737;BME280;64476;55.004;73.342;2024-03-25T04:18:38;100319.53;;;2.48;54.51
69737;BME280;64476;55.004;73.342;2024-03-25T04:21:40;100337.00;;;2.58;54.75
69737;BME280;64476;55.004;73.342;2024-03-25T04:24:43;100350.81;;;2.69;53.76
69737;BME280;64476;55.004;73.342;2024-03-25T04:27:47;100262.28;;;2.16;54.64
69737;BME280;64476;55.004;73.342;2024-03-25T04:30:52;100323.19;;;2.46;53.40
69737;BME280;64476;55.004;73.342;2024-03-25T04:33:55;100339.34;;;2.49;53.90
69737;BME280;64476;55.004;73.342;2024-03-25T04:36:58;100351.47;;;2.49;54.45
69737;BME280;64476;55.004;73.342;2024-03-25T04:40:32;100344.50;;;2.38;53.51
69737;BME280;64476;55.004;73.342;2024-03-25T04:44:06;100377.41;;;2.49;54.19
69737;BME280;64476;55.004;73.342;2024-03-25T04:47:08;100363.69;;;2.36;54.43
69737;BME280;64476;55.004;73.342;2024-03-25T04:50:13;100334.13;;;2.14;53.66
69737;BME280;64476;55.004;73.342;2024-03-25T04:53:14;100364.25;;;2.28;54.46
69737;BME280;64476;55.004;73.342;2024-03-25T04:56:16;100399.91;;;2.37;54.77
69737;BME280;64476;55.004;73.342;2024-03-25T04:59:18;100368.22;;;2.21;54.72
69737;BME280;64476;55.004;73.342;2024-03-25T05:02:20;100379.16;;;2.37;54.07
69737;BME280;64476;55.004;73.342;2024-03-25T05:05:25;100330.63;;;2.15;54.09
69737;BME280;64476;55.004;73.342;2024-03-25T05:08:27;100409.88;;;2.66;53.70
69737;BME280;64476;55.004;73.342;2024-03-25T05:11:29;100381.13;;;2.34;53.62
69737;BME280;64476;55.004;73.342;2024-03-25T05:14:30;100352.81;;;2.07;54.22
69737;BME280;64476;55.004;73.342;2024-03-25T05:17:32;100420.31;;;2.42;54.02
69737;BME280;64476;55.004;73.342;2024-03-25T05:20:37;100369.97;;;2.20;53.88
69737;BME280;64476;55.004;73.342;2024-03-25T05:23:40;100429.91;;;2.52;53.94
69737;BME280;64476;55.004;73.342;2024-03-25T05:26:42;100354.09;;;2.25;53.81
69737;BME280;64476;55.004;73.342;2024-03-25T05:29:44;100407.94;;;2.81;52.49
69737;BME280;64476;55.004;73.342;2024-03-25T05:33:18;100433.66;;;3.19;53.00
69737;BME280;64476;55.004;73.342;2024-03-25T05:36:20;100388.91;;;3.15;52.78
69737;BME280;64476;55.004;73.342;2024-03-25T05:39:24;100433.91;;;3.49;51.87
69737;BME280;64476;55.004;73.342;2024-03-25T05:42:31;100413.13;;;3.49;51.48
69737;BME280;64476;55.004;73.342;2024-03-25T05:45:32;100441.34;;;3.65;50.90
69737;BME280;64476;55.004;73.342;2024-03-25T05:48:34;100436.16;;;3.54;51.11
69737;BME280;64476;55.004;73.342;2024-03-25T05:51:36;100455.06;;;3.56;50.79
69737;BME280;64476;55.004;73.342;2024-03-25T05:54:37;100457.31;;;3.61;50.63
69737;BME280;64476;55.004;73.342;2024-03-25T05:57:39;100460.72;;;3.84;50.73
69737;BME280;64476;55.004;73.342;2024-03-25T06:00:41;100426.47;;;3.67;49.82
69737;BME280;64476;55.004;73.342;2024-03-25T06:03:42;100471.38;;;3.92;49.85
69737;BME280;64476;55.004;73.342;2024-03-25T06:06:44;100461.56;;;3.84;49.98
69737;BME280;64476;55.004;73.342;2024-03-25T06:09:46;100491.91;;;4.06;49.63
69737;BME280;64476;55.004;73.342;2024-03-25T06:12:48;100477.16;;;4.07;49.55
69737;BME280;64476;55.004;73.342;2024-03-25T06:15:50;100505.84;;;4.28;49.47
69737;BME280;64476;55.004;73.342;2024-03-25T06:18:51;100512.44;;;4.32;49.05
69737;BME280;64476;55.004;73.342;2024-03-25T06:21:58;100516.38;;;4.26;49.00
69737;BME280;64476;55.004;73.342;2024-03-25T06:25:00;100500.75;;;4.26;49.31
69737;BME280;64476;55.004;73.342;2024-03-25T06:28:02;100501.72;;;4.25;49.00
69737;BME280;64476;55.004;73.342;2024-03-25T06:31:04;100519.94;;;4.25;48.69
69737;BME280;64476;55.004;73.342;2024-03-25T06:34:28;100519.56;;;4.18;48.65
69737;BME280;64476;55.004;73.342;2024-03-25T06:37:30;100534.44;;;4.28;48.73
69737;BME280;64476;55.004;73.342;2024-03-25T06:40:31;100542.41;;;4.37;48.72
69737;BME280;64476;55.004;73.342;2024-03-25T06:43:33;100525.59;;;4.30;48.55
69737;BME280;64476;55.004;73.342;2024-03-25T06:46:35;100542.53;;;4.47;48.41
69737;BME280;64476;55.004;73.342;2024-03-25T06:49:37;100527.00;;;4.34;48.32
69737;BME280;64476;55.004;73.342;2024-03-25T06:52:38;100553.75;;;4.48;48.35
69737;BME280;64476;55.004;73.342;2024-03-25T06:55:40;100554.22;;;4.41;48.15
69737;BME280;64476;55.004;73.342;2024-03-25T06:58:42;100566.28;;;4.42;48.68
69737;BME280;64476;55.004;73.342;2024-03-25T07:01:44;100568.78;;;4.44;48.18
69737;BME280;64476;55.004;73.342;2024-03-25T07:04:51;100563.41;;;4.57;48.25
69737;BME280;64476;55.004;73.342;2024-03-25T07:08:00;100568.22;;;4.73;47.64
69737;BME280;64476;55.004;73.342;2024-03-25T07:11:02;100596.66;;;4.64;47.55
69737;BME280;64476;55.004;73.342;2024-03-25T07:17:11;100589.22;;;4.60;47.74
69737;BME280;64476;55.004;73.342;2024-03-25T07:20:13;100594.53;;;4.69;47.53
69737;BME280;64476;55.004;73.342;2024-03-25T07:23:14;100599.13;;;4.77;47.82
69737;BME280;64476;55.004;73.342;2024-03-25T07:29:51;100618.06;;;4.68;47.61
69737;BME280;64476;55.004;73.342;2024-03-25T07:33:11;100592.63;;;4.60;47.82
69737;BME280;64476;55.004;73.342;2024-03-25T07:36:13;100601.63;;;4.67;47.67
69737;BME280;64476;55.004;73.342;2024-03-25T07:39:16;100579.28;;;4.54;47.56
69737;BME280;64476;55.004;73.342;2024-03-25T07:42:17;100617.00;;;4.70;47.85
69737;BME280;64476;55.004;73.342;2024-03-25T07:45:19;100624.94;;;4.69;47.50
69737;BME280;64476;55.004;73.342;2024-03-25T07:48:21;100621.03;;;4.52;47.58
69737;BME280;64476;55.004;73.342;2024-03-25T07:51:23;100623.47;;;4.31;48.38
69737;BME280;64476;55.004;73.342;2024-03-25T07:54:25;100627.78;;;4.43;48.03
69737;BME280;64476;55.004;73.342;2024-03-25T07:58:00;100629.81;;;4.40;47.94
69737;BME280;64476;55.004;73.342;2024-03-25T08:01:02;100635.25;;;4.48;48.13
69737;BME280;64476;55.004;73.342;2024-03-25T08:04:04;100615.03;;;4.40;47.53
69737;BME280;64476;55.004;73.342;2024-03-25T08:07:06;100630.63;;;4.40;47.74
69737;BME280;64476;55.004;73.342;2024-03-25T08:10:08;100631.66;;;4.27;47.44
69737;BME280;64476;55.004;73.342;2024-03-25T08:13:10;100633.50;;;4.13;48.19
69737;BME280;64476;55.004;73.342;2024-03-25T08:16:11;100640.16;;;4.17;48.26
69737;BME280;64476;55.004;73.342;2024-03-25T08:19:13;100622.97;;;3.81;48.65
69737;BME280;64476;55.004;73.342;2024-03-25T08:22:15;100659.88;;;4.09;48.48
69737;BME280;64476;55.004;73.342;2024-03-25T08:25:17;100645.06;;;4.44;48.33
69737;BME280;64476;55.004;73.342;2024-03-25T08:28:19;100677.44;;;4.97;47.06
69737;BME280;64476;55.004;73.342;2024-03-25T08:31:21;100631.41;;;4.86;46.81
69737;BME280;64476;55.004;73.342;2024-03-25T08:34:56;100620.06;;;4.76;46.38
69737;BME280;64476;55.004;73.342;2024-03-25T08:37:57;100638.53;;;4.84;46.08
69737;BME280;64476;55.004;73.342;2024-03-25T08:40:59;100688.47;;;4.89;46.94
69737;BME280;64476;55.004;73.342;2024-03-25T08:44:01;100678.75;;;4.80;46.92
69737;BME280;64476;55.004;73.342;2024-03-25T08:47:03;100693.50;;;5.02;46.68
69737;BME280;64476;55.004;73.342;2024-03-25T08:50:09;100672.25;;;4.74;46.42
69737;BME280;64476;55.004;73.342;2024-03-25T08:53:43;100685.44;;;4.15;47.34
69737;BME280;64476;55.004;73.342;2024-03-25T08:56:45;100716.13;;;4.10;48.12
69737;BME280;64476;55.004;73.342;2024-03-25T08:59:46;100707.63;;;4.08;48.36
69737;BME280;64476;55.004;73.342;2024-03-25T09:02:48;100687.66;;;4.08;48.02
69737;BME280;64476;55.004;73.342;2024-03-25T09:05:50;100703.88;;;4.12;48.34
69737;BME280;64476;55.004;73.342;2024-03-25T09:08:52;100713.22;;;4.14;48.28
69737;BME280;64476;55.004;73.342;2024-03-25T09:12:29;100717.50;;;4.27;48.56
69737;BME280;64476;55.004;73.342;2024-03-25T09:16:03;100717.88;;;4.33;48.38
69737;BME280;64476;55.004;73.342;2024-03-25T09:19:06;100677.16;;;4.21;47.89
69737;BME280;64476;55.004;73.342;2024-03-25T09:22:08;100706.19;;;4.39;48.00
69737;BME280;64476;55.004;73.342;2024-03-25T09:25:10;100702.59;;;4.29;47.78
69737;BME280;64476;55.004;73.342;2024-03-25T09:28:11;100734.94;;;4.37;47.85
69737;BME280;64476;55.004;73.342;2024-03-25T09:31:13;100729.28;;;4.43;47.98
69737;BME280;64476;55.004;73.342;2024-03-25T09:34:15;100740.28;;;4.58;47.73
69737;BME280;64476;55.004;73.342;2024-03-25T09:37:50;100705.34;;;4.38;47.80
69737;BME280;64476;55.004;73.342;2024-03-25T09:41:24;100741.09;;;4.48;47.00
69737;BME280;64476;55.004;73.342;2024-03-25T09:47:34;100743.34;;;4.17;48.47
69737;BME280;64476;55.004;73.342;2024-03-25T09:50:36;100751.66;;;4.22;48.06
69737;BME280;64476;55.004;73.342;2024-03-25T09:53:38;100736.94;;;4.10;48.23
69737;BME280;64476;55.004;73.342;2024-03-25T09:56:40;100767.25;;;4.22;48.37
69737;BME280;64476;55.004;73.342;2024-03-25T09:59:43;100736.50;;;4.16;48.00
69737;BME280;64476;55.004;73.342;2024-03-25T10:02:45;100733.53;;;4.20;48.22
69737;BME280;64476;55.004;73.342;2024-03-25T10:05:46;100761.19;;;4.45;47.54
69737;BME280;64476;55.004;73.342;2024-03-25T10:08:48;100755.56;;;4.28;47.95
69737;BME280;64476;55.004;73.342;2024-03-25T10:11:59;100765.00;;;4.53;48.02
69737;BME280;64476;55.004;73.342;2024-03-25T10:15:00;100748.47;;;4.30;47.58
69737;BME280;64476;55.004;73.342;2024-03-25T10:18:02;100766.03;;;4.39;47.85
69737;BME280;64476;55.004;73.342;2024-03-25T10:21:04;100776.09;;;4.43;48.30
69737;BME280;64476;55.004;73.342;2024-03-25T10:24:16;100751.41;;;4.14;47.74
69737;BME280;64476;55.004;73.342;2024-03-25T10:27:20;100791.13;;;4.16;48.30
69737;BME280;64476;55.004;73.342;2024-03-25T10:30:22;100769.44;;;4.04;48.35
69737;BME280;64476;55.004;73.342;2024-03-25T10:33:24;100794.47;;;4.29;48.35
69737;BME280;64476;55.004;73.342;2024-03-25T10:36:26;100806.63;;;4.53;48.23
69737;BME280;64476;55.004;73.342;2024-03-25T10:39:31;100803.34;;;4.51;47.92
69737;BME280;64476;55.004;73.342;2024-03-25T10:42:34;100798.22;;;4.49;47.82
69737;BME280;64476;55.004;73.342;2024-03-25T10:52:45;100815.88;;;4.68;48.02
69737;BME280;64476;55.004;73.342;2024-03-25T10:55:47;100783.44;;;4.50;47.35
69737;BME280;64476;55.004;73.342;2024-03-25T10:58:57;100807.34;;;4.55;47.61
69737;BME280;64476;55.004;73.342;2024-03-25T11:02:32;100800.44;;;4.42;47.87
69737;BME280;64476;55.004;73.342;2024-03-25T11:05:37;100830.25;;;4.38;48.01
69737;BME280;64476;55.004;73.342;2024-03-25T11:09:23;100820.06;;;4.11;48.51
69737;BME280;64476;55.004;73.342;2024-03-25T11:13:00;100837.41;;;3.99;49.03
69737;BME280;64476;55.004;73.342;2024-03-25T11:16:33;100870.34;;;4.23;48.92
69737;BME280;64476;55.004;73.342;2024-03-25T11:19:42;100862.94;;;4.30;48.93
69737;BME280;64476;55.004;73.342;2024-03-25T11:22:51;100870.47;;;4.45;47.95
69737;BME280;64476;55.004;73.342;2024-03-25T11:25:56;100838.25;;;4.35;47.79
69737;BME280;64476;55.004;73.342;2024-03-25T11:28:58;100839.28;;;4.57;47.66
69737;BME280;64476;55.004;73.342;2024-03-25T11:32:04;100873.94;;;4.92;47.33
69737;BME280;64476;55.004;73.342;2024-03-25T11:35:08;100876.53;;;4.92;47.51
69737;BME280;64476;55.004;73.342;2024-03-25T11:38:18;100857.59;;;4.90;47.50
69737;BME280;64476;55.004;73.342;2024-03-25T11:41:20;100863.88;;;4.88;46.78
69737;BME280;64476;55.004;73.342;2024-03-25T11:44:22;100860.78;;;5.05;46.48
69737;BME280;64476;55.004;73.342;2024-03-25T11:47:25;100866.75;;;5.18;46.51
69737;BME280;64476;55.004;73.342;2024-03-25T11:50:27;100864.72;;;5.11;46.70
69737;BME280;64476;55.004;73.342;2024-03-25T11:53:30;100891.22;;;4.93;47.04
69737;BME280;64476;55.004;73.342;2024-03-25T11:56:32;100887.44;;;4.51;47.55
69737;BME280;64476;55.004;73.342;2024-03-25T11:59:42;100878.38;;;4.20;48.09
69737;BME280;64476;55.004;73.342;2024-03-25T12:02:48;100902.16;;;4.03;48.56
69737;BME280;64476;55.004;73.342;2024-03-25T12:05:52;100890.19;;;3.76;49.05
69737;BME280;64476;55.004;73.342;2024-03-25T12:08:54;100923.34;;;3.85;49.45
69737;BME280;64476;55.004;73.342;2024-03-25T12:12:45;100880.97;;;3.46;49.43
69737;BME280;64476;55.004;73.342;2024-03-25T12:16:19;100929.16;;;3.76;49.77
69737;BME280;64476;55.004;73.342;2024-03-25T12:20:03;100938.84;;;3.74;50.17
69737;BME280;64476;55.004;73.342;2024-03-25T12:23:42;100947.56;;;3.73;50.23
69737;BME280;64476;55.004;73.342;2024-03-25T12:27:30;100887.53;;;3.39;50.12
69737;BME280;64476;55.004;73.342;2024-03-25T12:30:32;100931.88;;;3.62;50.08
69737;BME280;64476;55.004;73.342;2024-03-25T12:33:41;100887.97;;;3.33;49.97
69737;BME280;64476;55.004;73.342;2024-03-25T12:36:46;100945.53;;;3.53;50.67
69737;BME280;64476;55.004;73.342;2024-03-25T12:39:49;100921.22;;;3.28;50.84
69737;BME280;64476;55.004;73.342;2024-03-25T12:42:52;100896.69;;;3.07;50.95
69737;BME280;64476;55.004;73.342;2024-03-25T12:45:54;100973.59;;;3.47;50.89
69737;BME280;64476;55.004;73.342;2024-03-25T12:48:56;100966.53;;;3.37;50.87
69737;BME280;64476;55.004;73.342;2024-03-25T12:52:30;100980.88;;;3.30;50.64
69737;BME280;64476;55.004;73.342;2024-03-25T12:55:32;100990.63;;;3.26;51.54
69737;BME280;64476;55.004;73.342;2024-03-25T13:02:10;100999.00;;;3.04;51.26
69737;BME280;64476;55.004;73.342;2024-03-25T13:05:12;100977.66;;;2.86;51.91
69737;BME280;64476;55.004;73.342;2024-03-25T13:08:21;100986.78;;;2.79;51.79
69737;BME280;64476;55.004;73.342;2024-03-25T13:11:23;101016.03;;;2.81;52.75
69737;BME280;64476;55.004;73.342;2024-03-25T13:14:39;100999.53;;;2.55;52.62
69737;BME280;64476;55.004;73.342;2024-03-25T13:21:19;101009.13;;;2.40;53.46
69737;BME280;64476;55.004;73.342;2024-03-25T13:24:27;100992.22;;;2.20;53.29
69737;BME280;64476;55.004;73.342;2024-03-25T13:27:29;101010.56;;;2.17;53.93
69737;BME280;64476;55.004;73.342;2024-03-25T13:30:32;101016.31;;;2.08;54.30
69737;BME280;64476;55.004;73.342;2024-03-25T13:34:18;101037.91;;;2.09;54.75
69737;BME280;64476;55.004;73.342;2024-03-25T13:37:20;100951.44;;;1.52;54.70
69737;BME280;64476;55.004;73.342;2024-03-25T13:41:01;101040.31;;;1.97;55.06
69737;BME280;64476;55.004;73.342;2024-03-25T13:44:18;101037.50;;;1.86;54.85
69737;BME280;64476;55.004;73.342;2024-03-25T13:47:20;101028.88;;;1.71;55.42
69737;BME280;64476;55.004;73.342;2024-03-25T13:54:11;101057.25;;;1.58;55.97
69737;BME280;64476;55.004;73.342;2024-03-25T13:57:45;101077.25;;;1.56;56.12
69737;BME280;64476;55.004;73.342;2024-03-25T14:00:50;101061.28;;;1.34;55.67
69737;BME280;64476;55.004;73.342;2024-03-25T14:03:53;101066.63;;;1.31;56.64
69737;BME280;64476;55.004;73.342;2024-03-25T14:06:58;101092.91;;;1.39;56.22
69737;BME280;64476;55.004;73.342;2024-03-25T14:10:00;101084.81;;;1.29;56.64
69737;BME280;64476;55.004;73.342;2024-03-25T14:13:03;101033.88;;;1.00;56.66
69737;BME280;64476;55.004;73.342;2024-03-25T14:16:06;101074.19;;;1.20;56.49
69737;BME280;64476;55.004;73.342;2024-03-25T14:19:08;101070.16;;;1.14;56.17
69737;BME280;64476;55.004;73.342;2024-03-25T14:22:10;101110.72;;;1.29;56.20
69737;BME280;64476;55.004;73.342;2024-03-25T14:28:45;101117.59;;;1.15;56.55
69737;BME280;64476;55.004;73.342;2024-03-25T14:32:19;101140.41;;;1.24;56.74
69737;BME280;64476;55.004;73.342;2024-03-25T14:35:53;101112.13;;;1.05;57.18
69737;BME280;64476;55.004;73.342;2024-03-25T14:38:54;101108.25;;;0.96;57.08
69737;BME280;64476;55.004;73.342;2024-03-25T14:41:58;101127.88;;;1.00;57.10
69737;BME280;64476;55.004;73.342;2024-03-25T14:45:00;101152.00;;;1.17;57.01
69737;BME280;64476;55.004;73.342;2024-03-25T14:48:02;101114.63;;;0.91;57.37
69737;BME280;64476;55.004;73.342;2024-03-25T14:51:04;101097.41;;;0.74;57.32
69737;BME280;64476;55.004;73.342;2024-03-25T14:54:07;101145.25;;;0.98;56.92
69737;BME280;64476;55.004;73.342;2024-03-25T14:57:09;101138.06;;;0.88;56.88
69737;BME280;64476;55.004;73.342;2024-03-25T15:00:11;101135.59;;;0.86;57.03
69737;BME280;64476;55.004;73.342;2024-03-25T15:03:13;101169.22;;;1.02;57.66
69737;BME280;64476;55.004;73.342;2024-03-25T15:06:15;101171.88;;;1.00;57.00
69737;BME280;64476;55.004;73.342;2024-03-25T15:09:16;101174.72;;;0.96;57.21
69737;BME280;64476;55.004;73.342;2024-03-25T15:12:18;101136.31;;;0.72;57.82
69737;BME280;64476;55.004;73.342;2024-03-25T15:15:20;101141.50;;;0.72;57.30
69737;BME280;64476;55.004;73.342;2024-03-25T15:18:22;101109.16;;;0.48;57.93
69737;BME280;64476;55.004;73.342;2024-03-25T15:21:25;101114.44;;;0.46;57.68
69737;BME280;64476;55.004;73.342;2024-03-25T15:24:27;101175.44;;;0.82;57.90
69737;BME280;64476;55.004;73.342;2024-03-25T15:27:28;101191.06;;;0.80;58.18
69737;BME280;64476;55.004;73.342;2024-03-25T15:30:30;101166.31;;;0.59;57.83
69737;BME280;64476;55.004;73.342;2024-03-25T15:33:32;101179.78;;;0.66;58.10
69737;BME280;64476;55.004;73.342;2024-03-25T15:36:34;101192.56;;;0.69;57.91
69737;BME280;64476;55.004;73.342;2024-03-25T15:43:11;101205.88;;;0.61;58.27
69737;BME280;64476;55.004;73.342;2024-03-25T15:46:15;101150.41;;;0.33;57.78
69737;BME280;64476;55.004;73.342;2024-03-25T15:49:17;101153.34;;;0.27;58.31
69737;BME280;64476;55.004;73.342;2024-03-25T15:52:18;101207.94;;;0.54;58.28
69737;BME280;64476;55.004;73.342;2024-03-25T15:55:20;101187.81;;;0.44;58.04
69737;BME280;64476;55.004;73.342;2024-03-25T15:58:22;101150.75;;;0.27;58.25
69737;BME280;64476;55.004;73.342;2024-03-25T16:01:24;101098.81;;;-0.01;58.13
69737;BME280;64476;55.004;73.342;2024-03-25T16:04:25;101075.50;;;-0.17;57.93
69737;BME280;64476;55.004;73.342;2024-03-25T16:07:27;101159.00;;;0.34;58.40
69737;BME280;64476;55.004;73.342;2024-03-25T16:10:34;101153.41;;;0.26;58.27
69737;BME280;64476;55.004;73.342;2024-03-25T16:13:36;101182.94;;;0.38;58.33
69737;BME280;64476;55.004;73.342;2024-03-25T16:16:41;101179.50;;;0.21;58.27
69737;BME280;64476;55.004;73.342;2024-03-25T16:19:43;101207.97;;;0.37;58.65
69737;BME280;64476;55.004;73.342;2024-03-25T16:22:51;101215.16;;;0.32;58.74
69737;BME280;64476;55.004;73.342;2024-03-25T16:25:53;101205.09;;;0.26;59.07
69737;BME280;64476;55.004;73.342;2024-03-25T16:28:55;101216.91;;;0.31;58.55
69737;BME280;64476;55.004;73.342;2024-03-25T16:31:58;101215.28;;;0.29;58.46
69737;BME280;64476;55.004;73.342;2024-03-25T16:35:02;101210.97;;;0.29;58.58
69737;BME280;64476;55.004;73.342;2024-03-25T16:38:05;101136.97;;;-0.24;58.59
69737;BME280;64476;55.004;73.342;2024-03-25T16:41:07;101173.88;;;-0.04;58.31
69737;BME280;64476;55.004;73.342;2024-03-25T16:44:08;101215.97;;;0.15;58.74
69737;BME280;64476;55.004;73.342;2024-03-25T16:47:11;101063.13;;;-0.80;58.77
69737;BME280;64476;55.004;73.342;2024-03-25T16:50:12;101188.47;;;-0.03;58.66
69737;BME280;64476;55.004;73.342;2024-03-25T16:53:14;101232.72;;;0.25;59.00